Electa — ICBQ — position and weather

sailwx.info

Track history (hours):
 
Tides and Currents Weather Stations Pressure Air Temp Water Temp Dewpoint Dewpoint Depression Visibility Wind Speed Wind Dir Waves Ship Positions

Electa

Last reported at 2018-Feb-24 14:12 UTC. Time now 2018-Feb-24 14:41 UTC.
Position N 47°34' W 052°35'.

Length 183 m; draft 8.4 m.

Type: Tanker. MMSI: 247284500.

Date/timePositionNaut miles runAvg speedWind from/ knotsBaromVisibWave heightAir tempDewpointWater temp
2018-Feb-24 14:12N 47°34' W 052°35'1 3.2
2018-Feb-24 13:59N 47°34' W 052°36'1 2.1
2018-Feb-24 13:27N 47°34' W 052°34'510.2
2018-Feb-24 13:00N 47°35' W 052°28'1 1.8
2018-Feb-24 12:27N 47°35' W 052°26'4 5.3
2018-Feb-24 11:41N 47°35' W 052°20'  
2018-Feb-15 09:50N 40°24' W 073°32'4 9.6
2018-Feb-15 09:27N 40°25' W 073°37'4 9.7
2018-Feb-15 08:59N 40°26' W 073°43'5 9.8
2018-Feb-15 08:30N 40°27' W 073°49'5 9.2
2018-Feb-15 08:00N 40°29' W 073°54'611.5
2018-Feb-15 07:30N 40°32' W 074°01'613.1
2018-Feb-15 07:00N 40°38' W 074°03'0 0.5
2018-Feb-15 06:30N 40°38' W 074°04'0 0.0
2018-Feb-15 06:00N 40°38' W 074°04'0 0.0
2018-Feb-15 05:30N 40°38' W 074°04'0 0.0
2018-Feb-15 05:00N 40°38' W 074°04'0 0.1
2018-Feb-15 04:30N 40°38' W 074°04'0 0.1
2018-Feb-15 04:00N 40°38' W 074°04'0 0.0
2018-Feb-15 03:30N 40°38' W 074°04'0 0.0
2018-Feb-15 03:00N 40°38' W 074°04'0 0.3
2018-Feb-15 02:30N 40°38' W 074°04'0 0.3
2018-Feb-15 02:00N 40°38' W 074°04'0 0.0
2018-Feb-15 01:27N 40°38' W 074°04'0 0.0
2018-Feb-15 01:00N 40°38' W 074°04'0 0.0
2018-Feb-15 00:30N 40°38' W 074°04'0 0.0
2018-Feb-15 00:00N 40°38' W 074°04'0 0.0
2018-Feb-14 23:30N 40°38' W 074°04'0 0.3
2018-Feb-14 23:00N 40°38' W 074°04'2 3.3
2018-Feb-14 22:30N 40°36' W 074°03'510.5
2018-Feb-14 22:00N 40°31' W 074°03'3 6.8
2018-Feb-14 21:30N 40°29' W 074°06'6 9.4
2018-Feb-14 20:52N 40°29' W 074°14'2 6.1
2018-Feb-14 20:30N 40°32' W 074°15'1 2.1
2018-Feb-14 20:00N 40°33' W 074°15'0 0.0
2018-Feb-14 19:27N 40°33' W 074°15'0 0.0
2018-Feb-14 18:39N 40°33' W 074°15'0 0.0
2018-Feb-14 16:51N 40°33' W 074°15'0 0.0
2018-Feb-14 16:21N 40°33' W 074°15'0 0.0
2018-Feb-14 15:57N 40°33' W 074°15'0 0.0
2018-Feb-14 15:21N 40°33' W 074°15'0 0.0
2018-Feb-14 14:57N 40°33' W 074°15'0 0.0
2018-Feb-14 14:27N 40°33' W 074°15'  
Track history (hours):
 
Tides and Currents Weather Stations Pressure Air Temp Water Temp Dewpoint Dewpoint Depression Visibility Wind Speed Wind Dir Waves Ship Positions

Electa

Last reported at 2018-Feb-24 14:12 UTC. Time now 2018-Feb-24 14:41 UTC.
Position N 47°34' W 052°35'.

Length 183 m; draft 8.4 m.

Type: Tanker. MMSI: 247284500.

Date/timePositionNaut miles runAvg speedWind from/ knotsBaromVisibWave heightAir tempDewpointWater temp
2018-Feb-24 14:12N 47°34' W 052°35'1 3.2
2018-Feb-24 13:59N 47°34' W 052°36'1 2.1
2018-Feb-24 13:27N 47°34' W 052°34'510.2
2018-Feb-24 13:00N 47°35' W 052°28'1 1.8
2018-Feb-24 12:27N 47°35' W 052°26'4 5.3
2018-Feb-24 11:41N 47°35' W 052°20'  
2018-Feb-15 09:50N 40°24' W 073°32'4 9.6
2018-Feb-15 09:27N 40°25' W 073°37'4 9.7
2018-Feb-15 08:59N 40°26' W 073°43'5 9.8
2018-Feb-15 08:30N 40°27' W 073°49'5 9.2
2018-Feb-15 08:00N 40°29' W 073°54'611.5
2018-Feb-15 07:30N 40°32' W 074°01'613.1
2018-Feb-15 07:00N 40°38' W 074°03'0 0.5
2018-Feb-15 06:30N 40°38' W 074°04'0 0.0
2018-Feb-15 06:00N 40°38' W 074°04'0 0.0
2018-Feb-15 05:30N 40°38' W 074°04'0 0.0
2018-Feb-15 05:00N 40°38' W 074°04'0 0.1
2018-Feb-15 04:30N 40°38' W 074°04'0 0.1
2018-Feb-15 04:00N 40°38' W 074°04'0 0.0
2018-Feb-15 03:30N 40°38' W 074°04'0 0.0
2018-Feb-15 03:00N 40°38' W 074°04'0 0.3
2018-Feb-15 02:30N 40°38' W 074°04'0 0.3
2018-Feb-15 02:00N 40°38' W 074°04'0 0.0
2018-Feb-15 01:27N 40°38' W 074°04'0 0.0
2018-Feb-15 01:00N 40°38' W 074°04'0 0.0
2018-Feb-15 00:30N 40°38' W 074°04'0 0.0
2018-Feb-15 00:00N 40°38' W 074°04'0 0.0
2018-Feb-14 23:30N 40°38' W 074°04'0 0.3
2018-Feb-14 23:00N 40°38' W 074°04'2 3.3
2018-Feb-14 22:30N 40°36' W 074°03'510.5
2018-Feb-14 22:00N 40°31' W 074°03'3 6.8
2018-Feb-14 21:30N 40°29' W 074°06'6 9.4
2018-Feb-14 20:52N 40°29' W 074°14'2 6.1
2018-Feb-14 20:30N 40°32' W 074°15'1 2.1
2018-Feb-14 20:00N 40°33' W 074°15'0 0.0
2018-Feb-14 19:27N 40°33' W 074°15'0 0.0
2018-Feb-14 18:39N 40°33' W 074°15'0 0.0
2018-Feb-14 16:51N 40°33' W 074°15'0 0.0
2018-Feb-14 16:21N 40°33' W 074°15'0 0.0
2018-Feb-14 15:57N 40°33' W 074°15'0 0.0
2018-Feb-14 15:21N 40°33' W 074°15'0 0.0
2018-Feb-14 14:57N 40°33' W 074°15'0 0.0
2018-Feb-14 14:27N 40°33' W 074°15'  

Dump ship's entire track history